Time;durP1;ratioP1;P1;durP2;ratioP2;P2;SDS_P1;SDS_P2;PMS_P1;PMS_P2;Temp;Humidity;BMP_temperature;BMP_pressure;BME280_temperature;BME280_humidity;BME280_pressure;Samples;Min_cycle;Max_cycle;Signal;HPM_P1;HPM_P2
2021/11/07 00:00:44;;;;;;;12.20;6.30;;;10.00;99.90;;;;;;5069384;28;20063;-42
2021/11/07 00:03:30;;;;;;;9.05;5.93;;;10.00;99.90;;;;;;5069843;28;20025;-43
2021/11/07 00:06:08;;;;;;;9.20;5.90;;;10.00;99.90;;;;;;5088718;28;20035;-43
2021/11/07 00:11:05;;;;;;;10.77;6.30;;;10.00;99.90;;;;;;5089143;28;20027;-44
2021/11/07 00:13:31;;;;;;;11.77;5.18;;;10.00;99.90;;;;;;5073015;28;20020;-42
2021/11/07 00:16:02;;;;;;;12.35;5.55;;;10.00;99.90;;;;;;5081151;28;20082;-43
2021/11/07 00:18:35;;;;;;;13.00;5.63;;;10.00;99.90;;;;;;5089049;28;20106;-42
2021/11/07 00:21:07;;;;;;;7.93;5.18;;;10.00;99.90;;;;;;5089496;28;20024;-43
2021/11/07 00:28:50;;;;;;;9.35;6.60;;;10.00;99.90;;;;;;5088833;28;20024;-43
2021/11/07 00:31:55;;;;;;;16.35;6.32;;;10.00;99.90;;;;;;5089683;28;20198;-43
2021/11/07 00:34:49;;;;;;;10.57;5.88;;;10.00;99.90;;;;;;5087324;28;20036;-43
2021/11/07 00:37:22;;;;;;;12.43;6.00;;;10.00;99.90;;;;;;5079913;28;20020;-44
2021/11/07 00:40:04;;;;;;;13.93;5.80;;;10.00;99.90;;;;;;5089303;28;20135;-43
2021/11/07 00:45:22;;;;;;;14.07;6.70;;;10.00;99.90;;;;;;5089576;28;20031;-44
2021/11/07 00:48:01;;;;;;;8.60;5.80;;;10.00;99.90;;;;;;5087287;28;20024;-45
2021/11/07 00:50:39;;;;;;;10.23;5.90;;;9.90;99.90;;;;;;5088938;28;20024;-44
2021/11/07 00:55:42;;;;;;;9.75;6.43;;;9.90;99.90;;;;;;5087463;28;20041;-43
2021/11/07 00:58:12;;;;;;;10.02;5.25;;;9.90;99.90;;;;;;5079817;28;20024;-43
2021/11/07 01:03:22;;;;;;;10.75;6.03;;;9.80;99.90;;;;;;5088954;28;20035;-44
2021/11/07 01:05:48;;;;;;;9.85;6.22;;;9.80;99.90;;;;;;5087460;28;20420;-43
2021/11/07 01:08:13;;;;;;;10.45;7.00;;;9.90;99.90;;;;;;5087996;28;20067;-43
2021/11/07 01:10:39;;;;;;;10.98;5.90;;;9.90;99.90;;;;;;5088670;28;20409;-45
2021/11/07 01:13:05;;;;;;;12.02;6.80;;;9.90;99.90;;;;;;5076136;28;20024;-43
2021/11/07 01:15:32;;;;;;;12.07;6.65;;;9.90;99.90;;;;;;5080208;28;20448;-43
2021/11/07 01:17:59;;;;;;;11.73;5.97;;;9.90;99.90;;;;;;5087813;28;20196;-43
2021/11/07 01:20:28;;;;;;;8.07;5.85;;;9.90;99.90;;;;;;5088390;28;20113;-44
2021/11/07 01:23:03;;;;;;;12.27;6.15;;;9.80;99.90;;;;;;5088497;28;20104;-43
2021/11/07 01:25:31;;;;;;;11.18;6.40;;;9.80;99.90;;;;;;5088317;28;20020;-45
2021/11/07 01:27:58;;;;;;;9.23;6.25;;;9.80;99.90;;;;;;5087512;28;20138;-45
2021/11/07 01:30:26;;;;;;;11.60;6.80;;;9.80;99.90;;;;;;5088392;28;20384;-46
2021/11/07 01:33:04;;;;;;;13.18;6.80;;;9.80;99.90;;;;;;5087045;28;20016;-44
2021/11/07 01:35:40;;;;;;;13.23;7.53;;;9.80;99.90;;;;;;5087276;28;20293;-43
2021/11/07 01:40:38;;;;;;;14.45;7.50;;;9.90;99.90;;;;;;5088317;28;20421;-44
2021/11/07 01:43:03;;;;;;;14.75;6.72;;;9.80;99.90;;;;;;5077529;28;20020;-43
2021/11/07 01:45:38;;;;;;;11.43;7.13;;;9.70;99.90;;;;;;5079940;28;20016;-44
2021/11/07 01:48:09;;;;;;;13.13;7.05;;;9.80;99.90;;;;;;5086692;28;20024;-44
2021/11/07 01:50:41;;;;;;;13.43;7.75;;;9.70;99.90;;;;;;5092164;28;20056;-43
2021/11/07 01:53:23;;;;;;;14.60;6.72;;;9.80;99.90;;;;;;5092371;28;20035;-44
2021/11/07 01:55:49;;;;;;;14.75;7.55;;;9.80;99.90;;;;;;5092330;28;20024;-46
2021/11/07 01:58:15;;;;;;;14.70;7.15;;;9.80;99.90;;;;;;5091428;28;20246;-44
2021/11/07 02:00:42;;;;;;;12.60;6.60;;;9.80;99.90;;;;;;5092074;28;20024;-43
2021/11/07 02:03:08;;;;;;;13.60;6.53;;;9.80;99.90;;;;;;5091987;28;20524;-42
2021/11/07 02:05:34;;;;;;;11.35;7.05;;;9.80;99.90;;;;;;5090787;28;20036;-43
2021/11/07 02:07:59;;;;;;;9.27;6.72;;;9.70;99.90;;;;;;5091491;28;20073;-43
2021/11/07 02:10:25;;;;;;;10.68;6.90;;;9.70;99.90;;;;;;5092151;28;20028;-43
2021/11/07 02:12:51;;;;;;;10.68;6.85;;;9.70;99.90;;;;;;5080377;28;20060;-43
2021/11/07 02:15:20;;;;;;;10.10;6.22;;;9.80;99.90;;;;;;5083840;28;20502;-43
2021/11/07 02:17:46;;;;;;;14.02;7.13;;;9.70;99.90;;;;;;5091863;28;20050;-43
2021/11/07 02:20:22;;;;;;;10.10;6.45;;;9.70;99.90;;;;;;5091832;28;20020;-43
2021/11/07 02:22:48;;;;;;;10.82;6.20;;;9.80;99.90;;;;;;5090607;28;20031;-44
2021/11/07 02:25:14;;;;;;;9.85;5.70;;;9.80;99.90;;;;;;5090317;28;20024;-42
2021/11/07 02:27:39;;;;;;;10.57;5.47;;;9.70;99.90;;;;;;5090680;28;20089;-43
2021/11/07 02:30:07;;;;;;;8.13;5.57;;;9.60;99.90;;;;;;5091497;28;20024;-43
2021/11/07 02:32:33;;;;;;;8.45;5.90;;;9.70;99.90;;;;;;5091533;28;20049;-43
2021/11/07 02:34:59;;;;;;;11.15;5.72;;;9.70;99.90;;;;;;5091506;28;20311;-43
2021/11/07 02:37:25;;;;;;;16.73;5.47;;;9.60;99.90;;;;;;5090716;28;20081;-43
2021/11/07 02:39:50;;;;;;;14.32;6.03;;;9.60;99.90;;;;;;5091168;28;20493;-43
2021/11/07 02:42:16;;;;;;;9.63;5.85;;;9.50;99.90;;;;;;5087531;28;20024;-43
2021/11/07 02:44:45;;;;;;;10.60;5.97;;;9.40;99.90;;;;;;5077981;28;20021;-43
2021/11/07 02:47:13;;;;;;;8.43;5.95;;;9.40;99.90;;;;;;5090568;28;20031;-43
2021/11/07 02:49:40;;;;;;;16.30;6.75;;;9.30;99.90;;;;;;5091129;28;20030;-43
2021/11/07 02:52:08;;;;;;;13.07;6.78;;;9.30;99.90;;;;;;5091576;28;20081;-43
2021/11/07 02:54:34;;;;;;;10.88;6.18;;;9.20;99.90;;;;;;5091156;28;20027;-42
2021/11/07 02:57:01;;;;;;;8.48;6.47;;;9.30;99.90;;;;;;5090948;28;20091;-42
2021/11/07 02:59:30;;;;;;;11.25;6.65;;;9.20;99.90;;;;;;5090083;28;20167;-43
2021/11/07 03:01:57;;;;;;;11.45;6.32;;;9.10;99.90;;;;;;5091092;28;20047;-43
2021/11/07 03:04:23;;;;;;;10.55;6.72;;;9.00;99.90;;;;;;5091105;28;20103;-44
2021/11/07 03:06:49;;;;;;;15.85;7.22;;;8.90;99.90;;;;;;5090793;28;20012;-43
2021/11/07 03:09:21;;;;;;;13.63;7.43;;;8.90;99.90;;;;;;5089021;28;20102;-42
2021/11/07 03:11:48;;;;;;;11.07;6.85;;;8.90;99.90;;;;;;5090840;28;20052;-42
2021/11/07 03:14:17;;;;;;;9.52;6.35;;;8.90;99.90;;;;;;5076866;28;20021;-43
2021/11/07 03:16:43;;;;;;;12.07;6.88;;;8.80;99.90;;;;;;5088962;28;20518;-42
2021/11/07 03:19:10;;;;;;;9.05;6.72;;;8.80;99.90;;;;;;5090118;28;20012;-44
2021/11/07 03:21:37;;;;;;;10.45;6.65;;;8.80;99.90;;;;;;5090541;28;20020;-42
2021/11/07 03:24:03;;;;;;;11.43;6.40;;;8.80;99.90;;;;;;5090448;28;20009;-44
2021/11/07 03:26:30;;;;;;;9.82;5.90;;;8.80;99.90;;;;;;5090408;28;20031;-43
2021/11/07 03:29:03;;;;;;;10.20;6.15;;;8.90;99.90;;;;;;5080379;28;20048;-43
2021/11/07 03:31:38;;;;;;;12.20;6.68;;;8.80;99.90;;;;;;5085162;28;20206;-43
2021/11/07 03:34:08;;;;;;;8.50;5.78;;;8.80;99.90;;;;;;5090630;28;20098;-43
2021/11/07 03:36:49;;;;;;;14.05;6.47;;;8.80;99.90;;;;;;5072623;28;20139;-43
2021/11/07 03:39:15;;;;;;;14.70;6.22;;;8.80;99.90;;;;;;5065934;28;20040;-43
2021/11/07 03:41:42;;;;;;;7.47;5.60;;;8.90;99.90;;;;;;5070131;28;20312;-43
2021/11/07 03:44:08;;;;;;;12.20;6.10;;;8.90;99.90;;;;;;5063505;28;20021;-43
2021/11/07 03:46:35;;;;;;;8.80;6.20;;;8.90;99.90;;;;;;5060741;28;20067;-43
2021/11/07 03:49:03;;;;;;;7.95;5.60;;;8.90;99.90;;;;;;5058081;28;20578;-43
2021/11/07 03:51:29;;;;;;;10.13;6.43;;;8.90;99.90;;;;;;5059943;28;20021;-42
2021/11/07 03:53:56;;;;;;;11.93;6.32;;;8.80;99.90;;;;;;5059054;28;20522;-43
2021/11/07 03:56:21;;;;;;;12.75;6.78;;;8.80;99.90;;;;;;5055882;28;20025;-43
2021/11/07 03:58:47;;;;;;;12.35;6.90;;;8.80;99.90;;;;;;5062857;28;20375;-43
2021/11/07 04:01:13;;;;;;;12.23;6.70;;;8.80;99.90;;;;;;5068265;28;20013;-43
2021/11/07 04:03:39;;;;;;;15.32;6.47;;;8.70;99.90;;;;;;5059779;28;20111;-43
2021/11/07 04:06:04;;;;;;;14.52;7.30;;;8.70;99.90;;;;;;5058673;28;20029;-43
2021/11/07 04:08:30;;;;;;;14.35;7.60;;;8.70;99.90;;;;;;5049748;28;20120;-44
2021/11/07 04:10:55;;;;;;;11.23;6.80;;;8.70;99.90;;;;;;5053067;28;20107;-44
2021/11/07 04:13:22;;;;;;;11.23;6.72;;;8.70;99.90;;;;;;5067754;28;20032;-42
2021/11/07 04:15:47;;;;;;;11.25;6.55;;;8.70;99.90;;;;;;5081253;28;20020;-43
2021/11/07 04:18:13;;;;;;;16.65;6.90;;;8.70;99.90;;;;;;5089406;28;20016;-43
2021/11/07 04:20:39;;;;;;;11.90;6.72;;;8.70;99.90;;;;;;5089345;28;20182;-43
2021/11/07 04:23:04;;;;;;;12.32;6.60;;;8.70;99.90;;;;;;5089738;28;20027;-43
2021/11/07 04:25:30;;;;;;;11.15;6.25;;;8.80;99.90;;;;;;5089316;28;20536;-43
2021/11/07 04:27:56;;;;;;;8.90;5.97;;;8.80;99.90;;;;;;5088473;28;20028;-43
2021/11/07 04:30:22;;;;;;;10.25;6.28;;;8.80;99.90;;;;;;5088539;28;20036;-43
2021/11/07 04:32:47;;;;;;;9.15;6.05;;;8.80;99.90;;;;;;5089428;28;20046;-42
2021/11/07 04:35:13;;;;;;;8.63;5.57;;;8.80;99.90;;;;;;5087806;28;20024;-43
2021/11/07 04:37:42;;;;;;;9.20;6.05;;;8.80;99.90;;;;;;5088553;28;20031;-42
2021/11/07 04:40:09;;;;;;;9.55;5.53;;;8.90;99.90;;;;;;5088907;28;20028;-42
2021/11/07 04:42:35;;;;;;;10.15;5.32;;;8.90;99.90;;;;;;5079813;28;20020;-42
2021/11/07 04:45:00;;;;;;;11.23;5.40;;;8.90;99.90;;;;;;5080476;28;20065;-43
2021/11/07 04:47:26;;;;;;;8.18;5.18;;;8.90;99.90;;;;;;5075352;28;20024;-43
2021/11/07 04:49:54;;;;;;;6.30;4.75;;;8.90;99.90;;;;;;5047808;28;20437;-42
2021/11/07 04:52:20;;;;;;;7.55;5.47;;;8.90;99.90;;;;;;5047883;28;20043;-42
2021/11/07 04:54:45;;;;;;;7.55;4.72;;;8.90;99.90;;;;;;5047926;28;20095;-42
2021/11/07 04:57:11;;;;;;;6.57;4.38;;;8.90;99.90;;;;;;5047092;28;20422;-42
2021/11/07 04:59:36;;;;;;;5.82;4.05;;;8.90;99.90;;;;;;5047257;28;20029;-42
2021/11/07 05:02:02;;;;;;;6.38;4.32;;;9.00;99.90;;;;;;5048039;28;20506;-43
2021/11/07 05:04:29;;;;;;;5.72;3.67;;;9.10;99.90;;;;;;5048275;28;20500;-44
2021/11/07 05:06:54;;;;;;;7.35;3.60;;;9.00;99.90;;;;;;5048646;28;20036;-44
2021/11/07 05:09:21;;;;;;;5.50;3.90;;;9.00;99.90;;;;;;5048114;28;20091;-42
2021/11/07 05:11:47;;;;;;;4.75;3.92;;;9.10;99.90;;;;;;5047158;28;20021;-44
2021/11/07 05:14:13;;;;;;;7.82;4.57;;;9.10;99.90;;;;;;5069272;28;20050;-43
2021/11/07 05:16:39;;;;;;;4.43;3.40;;;9.10;99.90;;;;;;5085164;28;20046;-43
2021/11/07 05:19:05;;;;;;;6.65;3.58;;;9.10;99.90;;;;;;5087172;28;20485;-43
2021/11/07 05:21:30;;;;;;;5.38;3.78;;;9.10;99.90;;;;;;5085703;28;20054;-44
2021/11/07 05:23:56;;;;;;;5.47;3.58;;;9.10;99.90;;;;;;5086942;28;20017;-40
2021/11/07 05:26:22;;;;;;;4.38;3.58;;;9.00;99.90;;;;;;5088476;28;20085;-42
2021/11/07 05:28:47;;;;;;;6.22;3.90;;;9.00;99.90;;;;;;5087646;28;20481;-43
2021/11/07 05:31:13;;;;;;;10.07;4.00;;;9.00;99.90;;;;;;5088618;28;20504;-44
2021/11/07 05:33:39;;;;;;;9.45;4.95;;;8.90;99.90;;;;;;5088306;28;20103;-44
2021/11/07 05:36:05;;;;;;;7.20;5.25;;;8.90;99.90;;;;;;5087182;28;20027;-43
2021/11/07 05:38:30;;;;;;;6.75;4.80;;;8.90;99.90;;;;;;5087932;28;20078;-44
2021/11/07 05:40:56;;;;;;;8.73;5.13;;;8.80;99.90;;;;;;5088132;28;20043;-45
2021/11/07 05:43:23;;;;;;;7.40;5.03;;;8.80;99.90;;;;;;5085591;28;20016;-45
2021/11/07 05:45:50;;;;;;;10.45;5.85;;;8.80;99.90;;;;;;5079722;28;20022;-44
2021/11/07 05:48:16;;;;;;;6.78;4.63;;;8.80;99.90;;;;;;5087509;28;20081;-44
2021/11/07 05:50:42;;;;;;;9.90;5.47;;;8.80;99.90;;;;;;5088071;28;20199;-43
2021/11/07 05:53:08;;;;;;;6.35;5.25;;;8.80;99.90;;;;;;5088292;28;20030;-43
2021/11/07 05:55:33;;;;;;;7.88;4.70;;;8.90;99.90;;;;;;5068058;28;20382;-44
2021/11/07 05:57:59;;;;;;;10.02;6.25;;;8.80;99.90;;;;;;5054992;28;20080;-43
2021/11/07 06:00:26;;;;;;;8.43;5.75;;;8.80;99.90;;;;;;5057226;28;20371;-43
2021/11/07 06:02:52;;;;;;;7.18;5.10;;;8.80;99.90;;;;;;5055805;28;20029;-43
2021/11/07 06:05:19;;;;;;;10.48;6.88;;;8.90;99.90;;;;;;5055643;28;20025;-43
2021/11/07 06:07:47;;;;;;;9.50;6.82;;;8.90;99.90;;;;;;5056735;28;20036;-43
2021/11/07 06:10:13;;;;;;;15.75;7.28;;;8.90;99.90;;;;;;5063285;28;20382;-43
2021/11/07 06:12:39;;;;;;;10.30;6.65;;;8.90;99.90;;;;;;5065278;28;20033;-44
2021/11/07 06:15:07;;;;;;;14.50;7.22;;;8.80;99.90;;;;;;5068732;28;20431;-44
2021/11/07 06:17:33;;;;;;;9.98;7.28;;;8.80;99.90;;;;;;5083993;28;20115;-43
2021/11/07 06:19:58;;;;;;;10.52;7.05;;;8.80;99.90;;;;;;5088062;28;20162;-44
2021/11/07 06:22:24;;;;;;;10.07;6.97;;;8.80;99.90;;;;;;5059121;28;20473;-43
2021/11/07 06:24:49;;;;;;;10.07;6.82;;;8.80;99.90;;;;;;5057316;28;20033;-43
2021/11/07 06:27:15;;;;;;;9.38;6.47;;;8.80;99.90;;;;;;5055857;28;20046;-44
2021/11/07 06:29:42;;;;;;;11.75;7.07;;;8.80;99.90;;;;;;5063561;28;20513;-44
2021/11/07 06:32:08;;;;;;;9.90;6.47;;;8.80;99.90;;;;;;5060609;28;20032;-43
2021/11/07 06:34:38;;;;;;;11.32;7.03;;;8.80;99.90;;;;;;5067955;28;20027;-44
2021/11/07 06:37:08;;;;;;;14.00;6.18;;;8.90;99.90;;;;;;5070915;28;20367;-44
2021/11/07 06:39:35;;;;;;;13.20;6.82;;;8.90;99.90;;;;;;5071446;28;20053;-44
2021/11/07 06:42:01;;;;;;;11.30;6.78;;;8.90;99.90;;;;;;5071451;28;20028;-43
2021/11/07 06:44:26;;;;;;;10.15;7.00;;;8.90;99.90;;;;;;5061375;28;20528;-43
2021/11/07 06:46:52;;;;;;;13.02;7.10;;;9.00;99.90;;;;;;5079185;28;20032;-44
2021/11/07 06:49:18;;;;;;;7.32;6.15;;;8.90;99.90;;;;;;5065493;28;20039;-44
2021/11/07 06:51:45;;;;;;;12.32;6.38;;;9.00;99.90;;;;;;5079213;28;20029;-43
2021/11/07 06:54:12;;;;;;;8.35;6.25;;;9.00;99.90;;;;;;5070042;28;20025;-42
2021/11/07 06:56:38;;;;;;;10.32;5.97;;;9.10;99.90;;;;;;5076660;28;20032;-42
2021/11/07 06:59:04;;;;;;;8.30;6.38;;;9.10;99.90;;;;;;5069395;28;20495;-42
2021/11/07 07:01:30;;;;;;;10.93;7.15;;;9.10;99.90;;;;;;5075758;28;20044;-43
2021/11/07 07:03:56;;;;;;;12.52;7.63;;;9.10;99.90;;;;;;5092728;28;20467;-43
2021/11/07 07:06:22;;;;;;;11.77;7.57;;;9.10;99.90;;;;;;5077238;28;20020;-42
2021/11/07 07:08:55;;;;;;;12.10;7.55;;;9.10;99.90;;;;;;5083571;28;20027;-43
2021/11/07 07:11:31;;;;;;;9.02;6.63;;;9.20;99.90;;;;;;5092777;28;20783;-43
2021/11/07 07:14:04;;;;;;;11.13;7.10;;;9.20;99.90;;;;;;5084424;28;20406;-43
2021/11/07 07:19:07;;;;;;;13.18;7.78;;;9.30;99.90;;;;;;5092113;28;20119;-43
2021/11/07 07:26:44;;;;;;;8.70;6.00;;;9.30;99.90;;;;;;5087778;28;20023;-43
2021/11/07 07:29:21;;;;;;;9.00;5.72;;;9.30;99.90;;;;;;5091572;28;20036;-43
2021/11/07 07:32:09;;;;;;;10.65;5.30;;;9.40;99.90;;;;;;5092342;28;20036;-43
2021/11/07 07:34:32;;;;;;;10.35;4.70;;;9.40;99.90;;;;;;5080257;28;20611;-41
2021/11/07 07:36:57;;;;;;;8.95;4.32;;;9.50;99.90;;;;;;5092112;28;20043;-41
2021/11/07 07:39:23;;;;;;;9.75;4.72;;;9.60;99.90;;;;;;5091673;28;20103;-41
2021/11/07 07:41:48;;;;;;;14.73;4.07;;;9.60;99.90;;;;;;5090699;28;20461;-41
2021/11/07 07:44:14;;;;;;;12.82;4.22;;;9.70;99.90;;;;;;5092087;28;20032;-42
2021/11/07 07:46:45;;;;;;;14.27;3.92;;;9.70;99.90;;;;;;5090620;28;20466;-41
2021/11/07 07:49:16;;;;;;;14.20;4.03;;;9.70;99.90;;;;;;5091594;28;20064;-40
2021/11/07 07:51:43;;;;;;;10.10;3.45;;;9.80;99.90;;;;;;5091927;28;20602;-41
2021/11/07 07:54:09;;;;;;;10.27;3.40;;;9.90;99.90;;;;;;5090646;28;20504;-40
2021/11/07 07:56:35;;;;;;;15.07;3.47;;;10.00;99.90;;;;;;5091553;28;20028;-42
2021/11/07 07:59:03;;;;;;;12.55;3.60;;;10.10;99.90;;;;;;5091122;28;20089;-41
2021/11/07 08:01:29;;;;;;;10.23;3.60;;;10.10;99.90;;;;;;5090034;28;20016;-41
2021/11/07 08:03:55;;;;;;;14.60;4.40;;;10.10;99.90;;;;;;5086092;28;20025;-41
2021/11/07 08:06:21;;;;;;;13.73;4.45;;;10.10;99.90;;;;;;5086528;28;20039;-41
2021/11/07 08:08:47;;;;;;;12.68;3.47;;;10.10;99.90;;;;;;5082385;28;20099;-41
2021/11/07 08:11:14;;;;;;;11.15;3.47;;;10.00;99.90;;;;;;5069308;28;20668;-41
2021/11/07 08:13:40;;;;;;;14.82;3.85;;;10.00;99.90;;;;;;5065343;28;20052;-41
2021/11/07 08:16:06;;;;;;;15.27;3.60;;;10.00;99.90;;;;;;5085981;28;20108;-41
2021/11/07 08:18:33;;;;;;;14.43;3.75;;;10.00;99.90;;;;;;5068617;28;20159;-42
2021/11/07 08:20:59;;;;;;;18.27;3.53;;;10.00;99.90;;;;;;5070783;28;20024;-42
2021/11/07 08:23:25;;;;;;;12.95;3.78;;;10.00;99.90;;;;;;5071096;28;20110;-42
2021/11/07 08:25:51;;;;;;;13.02;4.13;;;10.00;99.90;;;;;;5070859;28;20032;-42
2021/11/07 08:28:20;;;;;;;12.38;3.85;;;10.10;99.90;;;;;;5074685;28;20039;-43
2021/11/07 08:30:50;;;;;;;14.27;3.25;;;10.20;99.90;;;;;;5081457;28;20077;-42
2021/11/07 08:33:15;;;;;;;11.23;3.28;;;10.20;99.90;;;;;;5078980;28;20025;-42
2021/11/07 08:35:43;;;;;;;10.18;3.55;;;10.30;99.90;;;;;;5076726;28;20039;-42
2021/11/07 08:38:12;;;;;;;11.07;2.85;;;10.30;99.90;;;;;;5089304;28;20027;-41
2021/11/07 08:40:44;;;;;;;10.95;2.80;;;10.40;99.90;;;;;;5089526;28;20617;-42
2021/11/07 09:00:17;;;;;;;13.95;2.97;;;10.50;99.90;;;;;;5082002;28;20034;-41
2021/11/07 09:02:34;;;;;;;10.57;3.60;;;10.60;99.90;;;;;;5090730;28;20032;-41
2021/11/07 09:05:12;;;;;;;18.08;3.67;;;10.70;99.90;;;;;;5090952;28;20016;-42
2021/11/07 09:10:21;;;;;;;10.80;3.30;;;10.60;99.90;;;;;;5086960;28;20373;-42
2021/11/07 09:12:50;;;;;;;9.80;3.60;;;10.60;99.90;;;;;;5079212;28;20020;-41
2021/11/07 09:15:18;;;;;;;14.07;4.15;;;10.60;99.90;;;;;;5090402;28;20068;-41
2021/11/07 09:17:45;;;;;;;11.82;4.65;;;10.60;99.90;;;;;;5089857;28;20032;-42
2021/11/07 09:20:18;;;;;;;13.32;3.25;;;10.60;99.90;;;;;;5090441;28;20024;-41
2021/11/07 09:22:51;;;;;;;19.10;4.68;;;10.60;99.90;;;;;;5086371;28;20054;-41
2021/11/07 09:25:23;;;;;;;10.18;3.40;;;10.50;99.90;;;;;;5084455;28;20016;-41
2021/11/07 09:28:06;;;;;;;14.88;3.42;;;10.60;99.90;;;;;;5088981;28;20566;-43
2021/11/07 09:30:45;;;;;;;13.60;3.28;;;10.70;99.90;;;;;;5089662;28;20426;-42
2021/11/07 09:33:16;;;;;;;12.90;3.53;;;10.60;99.90;;;;;;5090001;28;20143;-42
2021/11/07 09:38:30;;;;;;;13.38;3.97;;;10.60;99.90;;;;;;5089470;28;19914;-43
2021/11/07 09:48:40;;;;;;;12.93;3.60;;;11.10;99.90;;;;;;5089653;28;20532;-42
2021/11/07 09:51:15;;;;;;;12.18;3.80;;;11.10;99.90;;;;;;5090150;28;20140;-43
2021/11/07 09:53:43;;;;;;;20.55;4.35;;;11.20;99.90;;;;;;5089939;28;20047;-42
2021/11/07 09:56:09;;;;;;;21.85;3.25;;;11.10;99.90;;;;;;5089241;28;20024;-42
2021/11/07 09:58:35;;;;;;;16.00;4.22;;;11.20;99.90;;;;;;5087891;28;20028;-41
2021/11/07 10:01:01;;;;;;;14.55;4.10;;;11.20;99.90;;;;;;5089693;28;20659;-41
2021/11/07 10:03:28;;;;;;;17.00;4.43;;;11.40;99.90;;;;;;5089754;28;20029;-42
2021/11/07 10:05:55;;;;;;;15.25;3.95;;;12.30;99.90;;;;;;5089729;28;20035;-42
2021/11/07 10:08:22;;;;;;;14.48;3.72;;;12.70;99.90;;;;;;5088972;28;20081;-42
2021/11/07 10:11:02;;;;;;;18.88;4.30;;;12.60;99.90;;;;;;5072379;28;20039;-42
2021/11/07 10:13:29;;;;;;;16.30;3.45;;;12.80;99.90;;;;;;5082311;28;20024;-42
2021/11/07 10:16:04;;;;;;;12.23;3.40;;;13.00;99.90;;;;;;5084440;28;20718;-43
2021/11/07 10:18:41;;;;;;;15.38;3.67;;;13.10;99.90;;;;;;5081649;28;20034;-42
2021/11/07 10:21:38;;;;;;;9.20;3.08;;;12.70;99.90;;;;;;5072705;28;20024;-43
2021/11/07 10:24:19;;;;;;;14.65;3.05;;;12.30;99.90;;;;;;5070929;28;20036;-44
2021/11/07 10:26:52;;;;;;;12.52;2.95;;;11.70;99.90;;;;;;5084913;28;20091;-43
2021/11/07 10:29:49;;;;;;;14.18;3.38;;;11.10;99.90;;;;;;5079721;28;20112;-42
2021/11/07 10:32:33;;;;;;;13.10;4.05;;;10.50;99.90;;;;;;5075218;28;20047;-43
2021/11/07 10:35:38;;;;;;;16.77;4.20;;;10.30;99.90;;;;;;5070451;28;20055;-41
2021/11/07 10:38:56;;;;;;;17.63;4.47;;;10.10;99.90;;;;;;5073173;28;20032;-42
2021/11/07 10:42:06;;;;;;;18.20;4.47;;;10.00;99.90;;;;;;5073027;28;20028;-42
2021/11/07 10:44:43;;;;;;;24.23;4.03;;;9.90;99.90;;;;;;5072669;28;20078;-42
2021/11/07 10:48:02;;;;;;;23.30;4.78;;;10.30;99.90;;;;;;5072309;28;20082;-42
2021/11/07 10:53:14;;;;;;;11.65;3.25;;;9.90;99.90;;;;;;5072870;28;20085;-41
2021/11/07 10:55:44;;;;;;;9.63;2.63;;;9.90;99.90;;;;;;5072564;28;20037;-42
2021/11/07 10:58:10;;;;;;;9.35;2.85;;;10.10;99.90;;;;;;5071871;28;20033;-42
2021/11/07 11:00:39;;;;;;;16.20;3.78;;;10.40;99.90;;;;;;5072394;28;20028;-44
2021/11/07 11:03:13;;;;;;;15.48;3.88;;;10.70;99.90;;;;;;5072350;28;20016;-42
2021/11/07 11:05:45;;;;;;;13.10;4.93;;;10.80;99.90;;;;;;5066878;28;20044;-42
2021/11/07 11:08:35;;;;;;;11.85;3.00;;;10.80;99.90;;;;;;5083497;28;20609;-42
2021/11/07 11:21:53;;;;;;;18.52;4.28;;;10.40;99.90;;;;;;5072057;28;20340;-42
2021/11/07 11:30:13;;;;;;;21.75;4.53;;;10.30;99.90;;;;;;5067261;28;20032;-42
2021/11/07 11:32:47;;;;;;;23.02;5.15;;;10.30;99.90;;;;;;5077136;28;20718;-42
2021/11/07 11:35:24;;;;;;;15.05;3.53;;;10.80;99.90;;;;;;5078928;28;20108;-43
2021/11/07 11:37:58;;;;;;;19.15;4.70;;;12.00;99.90;;;;;;5063752;28;20465;-43
2021/11/07 11:42:59;;;;;;;16.80;4.13;;;14.20;99.90;;;;;;5050352;28;20545;-45
2021/11/07 11:45:28;;;;;;;19.90;4.75;;;15.10;99.90;;;;;;5050199;28;20021;-43
2021/11/07 11:51:06;;;;;;;10.50;3.60;;;16.00;99.90;;;;;;5074309;28;20029;-44
2021/11/07 11:59:05;;;;;;;13.75;3.35;;;17.40;95.10;;;;;;5050711;28;20055;-43
2021/11/07 12:01:38;;;;;;;11.82;3.60;;;17.70;92.90;;;;;;5051670;28;20423;-45
2021/11/07 12:04:19;;;;;;;15.85;3.53;;;17.60;93.20;;;;;;5051489;28;20021;-43
2021/11/07 12:06:48;;;;;;;13.70;3.75;;;17.00;93.90;;;;;;5051462;28;20100;-43
2021/11/07 12:09:43;;;;;;;15.50;4.30;;;17.40;93.70;;;;;;5050681;28;20087;-44
2021/11/07 12:15:09;;;;;;;12.57;3.78;;;17.10;91.10;;;;;;5069302;28;20024;-43
2021/11/07 12:17:39;;;;;;;13.20;3.40;;;16.10;93.60;;;;;;5068702;28;20099;-44
2021/11/07 12:20:26;;;;;;;18.25;4.15;;;15.60;93.90;;;;;;5069371;28;20042;-42
2021/11/07 12:23:28;;;;;;;16.83;4.32;;;15.70;93.70;;;;;;5059011;28;20039;-43
2021/11/07 12:25:56;;;;;;;19.00;4.70;;;15.90;94.10;;;;;;5069643;28;20374;-43
2021/11/07 12:28:43;;;;;;;18.13;5.05;;;15.50;93.10;;;;;;5068519;28;20417;-43
2021/11/07 12:31:08;;;;;;;21.20;4.00;;;15.20;94.60;;;;;;5069246;28;20025;-45
2021/11/07 12:33:55;;;;;;;18.20;4.43;;;14.90;94.50;;;;;;5066888;28;20036;-43
2021/11/07 12:36:36;;;;;;;9.07;3.08;;;15.00;94.00;;;;;;5069537;28;20050;-43
2021/11/07 12:42:08;;;;;;;16.23;3.88;;;15.50;93.10;;;;;;5089185;28;20039;-42
2021/11/07 12:44:33;;;;;;;16.00;3.60;;;15.50;93.20;;;;;;5089074;28;20051;-43
2021/11/07 12:47:08;;;;;;;18.45;4.20;;;15.40;92.40;;;;;;5088801;28;20078;-42
2021/11/07 12:49:34;;;;;;;14.73;3.85;;;15.50;92.70;;;;;;5089029;28;20262;-45
2021/11/07 12:52:05;;;;;;;16.25;4.22;;;15.40;93.60;;;;;;5088658;28;20445;-43
2021/11/07 12:54:35;;;;;;;18.77;4.65;;;15.30;93.20;;;;;;5087521;28;20032;-43
2021/11/07 12:57:12;;;;;;;14.25;3.67;;;15.30;93.00;;;;;;5088066;28;20027;-42
2021/11/07 12:59:49;;;;;;;21.98;4.25;;;15.30;93.20;;;;;;5089080;28;20047;-45
2021/11/07 13:02:24;;;;;;;16.52;3.50;;;15.00;93.30;;;;;;5089056;28;20559;-43
2021/11/07 13:05:17;;;;;;;16.48;3.72;;;14.80;94.40;;;;;;5089100;28;20024;-43
2021/11/07 13:08:03;;;;;;;19.73;3.88;;;14.50;94.60;;;;;;5075566;28;20052;-45
2021/11/07 13:16:22;;;;;;;16.52;3.97;;;13.30;95.20;;;;;;5079021;28;20061;-43
2021/11/07 13:24:44;;;;;;;18.15;4.25;;;12.70;98.30;;;;;;5074600;28;20024;-43
2021/11/07 13:27:18;;;;;;;13.82;3.47;;;12.70;98.70;;;;;;5047627;28;20074;-43
2021/11/07 13:34:58;;;;;;;14.38;3.72;;;12.90;98.40;;;;;;5048371;28;19916;-42
2021/11/07 13:37:29;;;;;;;15.95;3.25;;;13.00;98.10;;;;;;5047408;28;20021;-43
2021/11/07 13:40:05;;;;;;;12.05;2.85;;;13.00;97.90;;;;;;5061952;28;20304;-42
2021/11/07 13:42:36;;;;;;;19.17;4.47;;;12.90;98.70;;;;;;5066100;28;20028;-42
2021/11/07 13:45:03;;;;;;;12.02;3.63;;;13.00;98.00;;;;;;5069658;28;20031;-44
2021/11/07 13:47:34;;;;;;;11.02;2.47;;;13.00;98.60;;;;;;5071403;28;20091;-42
2021/11/07 13:50:03;;;;;;;19.13;3.65;;;13.10;98.40;;;;;;5071637;28;20078;-43
2021/11/07 13:52:33;;;;;;;13.05;2.85;;;13.00;98.80;;;;;;5066672;28;20422;-43
2021/11/07 13:54:59;;;;;;;12.48;2.95;;;12.90;98.60;;;;;;5070454;28;20110;-43
2021/11/07 13:57:30;;;;;;;13.13;3.17;;;12.80;98.10;;;;;;5073449;28;20565;-42
2021/11/07 13:59:56;;;;;;;19.10;3.70;;;12.80;99.20;;;;;;5083502;28;20458;-42
2021/11/07 14:02:24;;;;;;;15.35;3.40;;;12.70;98.40;;;;;;5085798;28;20491;-41
2021/11/07 14:04:55;;;;;;;15.30;3.53;;;12.60;98.90;;;;;;5071797;28;20048;-42
2021/11/07 14:07:24;;;;;;;11.13;3.10;;;12.60;98.70;;;;;;5069488;28;20096;-44
2021/11/07 14:09:54;;;;;;;11.40;3.08;;;12.50;98.60;;;;;;5071298;28;20024;-42
2021/11/07 14:12:34;;;;;;;11.32;3.10;;;12.40;99.40;;;;;;5071543;28;20040;-42
2021/11/07 14:15:16;;;;;;;12.57;3.92;;;12.30;99.90;;;;;;5072108;28;20497;-43
2021/11/07 14:17:44;;;;;;;13.65;3.38;;;12.20;99.90;;;;;;5083392;28;20016;-42
2021/11/07 14:20:11;;;;;;;16.08;4.22;;;12.20;99.80;;;;;;5092080;28;20385;-42
2021/11/07 14:22:39;;;;;;;19.40;3.20;;;12.10;99.90;;;;;;5091659;28;20559;-42
2021/11/07 14:25:09;;;;;;;15.95;3.08;;;12.00;99.90;;;;;;5091666;28;20043;-41
2021/11/07 14:27:48;;;;;;;21.50;4.30;;;11.90;99.90;;;;;;5091407;28;20064;-42
2021/11/07 14:30:26;;;;;;;10.13;3.65;;;11.80;99.90;;;;;;5091154;28;20040;-42
2021/11/07 14:33:39;;;;;;;15.80;3.00;;;11.80;99.90;;;;;;5091375;28;20550;-42
2021/11/07 14:35:42;;;;;;;14.85;3.60;;;11.70;99.90;;;;;;5075447;28;20625;-43
2021/11/07 14:38:14;;;;;;;18.77;3.88;;;11.60;99.90;;;;;;5080900;28;20020;-42
2021/11/07 14:40:59;;;;;;;12.70;2.55;;;11.50;99.90;;;;;;5091339;28;20779;-42
2021/11/07 14:43:40;;;;;;;14.25;3.30;;;11.40;99.90;;;;;;5091932;28;20028;-43
2021/11/07 14:46:30;;;;;;;10.90;2.88;;;11.30;99.90;;;;;;5091331;28;20154;-42
2021/11/07 14:49:04;;;;;;;11.25;2.00;;;11.00;99.90;;;;;;5090649;28;20012;-42
2021/11/07 14:51:49;;;;;;;9.13;2.15;;;10.50;99.90;;;;;;5090985;28;20089;-42